createdAt,value
2023-02-18T00:02:03.797Z,101294.91
2023-02-18T00:04:34.183Z,101296.88
2023-02-18T00:07:04.491Z,101293.81
2023-02-18T00:09:34.460Z,101293.13
2023-02-18T00:12:04.536Z,101296.16
2023-02-18T00:14:34.429Z,101294.38
2023-02-18T00:17:06.875Z,101283.47
2023-02-18T00:19:36.797Z,101275.03
2023-02-18T00:22:06.762Z,101285.97
2023-02-18T00:24:36.854Z,101288.81
2023-02-18T00:27:07.464Z,101290.03
2023-02-18T00:29:37.946Z,101277.00
2023-02-18T00:32:11.457Z,101276.28
2023-02-18T00:34:41.553Z,101283.44
2023-02-18T00:37:11.659Z,101292.75
2023-02-18T00:39:41.492Z,101287.75
2023-02-18T00:42:11.570Z,101287.38
2023-02-18T00:44:41.594Z,101273.38
2023-02-18T00:47:14.052Z,101278.78
2023-02-18T00:49:44.787Z,101284.50
2023-02-18T00:52:15.057Z,101286.28
2023-02-18T00:54:45.069Z,101285.44
2023-02-18T00:57:15.386Z,101285.97
2023-02-18T00:59:45.279Z,101297.06
2023-02-18T01:02:17.794Z,101287.72
2023-02-18T01:04:47.634Z,101291.47
2023-02-18T01:07:17.484Z,101275.91
2023-02-18T01:09:47.400Z,101287.88
2023-02-18T01:12:17.785Z,101288.25
2023-02-18T01:14:47.727Z,101293.78
2023-02-18T01:17:20.879Z,101304.88
2023-02-18T01:19:50.704Z,101292.50
2023-02-18T01:22:20.712Z,101277.47
2023-02-18T01:24:50.751Z,101280.88
2023-02-18T01:27:20.786Z,101280.19
2023-02-18T01:29:50.765Z,101278.91
2023-02-18T01:32:24.292Z,101276.75
2023-02-18T01:34:54.276Z,101274.44
2023-02-18T01:37:25.415Z,101272.97
2023-02-18T01:39:55.447Z,101267.25
2023-02-18T01:42:28.184Z,101275.84
2023-02-18T01:45:29.240Z,101270.63
2023-02-18T01:48:02.484Z,101262.56
2023-02-18T01:50:33.365Z,101264.53
2023-02-18T01:53:04.156Z,101276.34
2023-02-18T01:55:35.835Z,101267.38
2023-02-18T01:58:06.749Z,101266.09
2023-02-18T02:00:37.167Z,101259.47
2023-02-18T02:03:09.856Z,101260.56
2023-02-18T02:05:39.861Z,101253.41
2023-02-18T02:08:10.688Z,101246.03
2023-02-18T02:10:56.195Z,101236.59
2023-02-18T02:13:38.065Z,101235.69
2023-02-18T02:16:15.079Z,101220.31
2023-02-18T02:18:59.152Z,101229.22
2023-02-18T02:21:55.687Z,101227.44
2023-02-18T02:24:56.024Z,101236.59
2023-02-18T02:27:29.234Z,101239.44
2023-02-18T02:30:40.091Z,101242.09
2023-02-18T02:33:40.186Z,101237.81
2023-02-18T02:36:17.245Z,101240.34
2023-02-18T02:38:57.008Z,101210.28
2023-02-18T02:41:39.289Z,101238.19
2023-02-18T02:44:19.983Z,101233.16
2023-02-18T02:46:55.312Z,101227.25
2023-02-18T02:49:40.678Z,101210.28
2023-02-18T02:52:18.420Z,101210.25
2023-02-18T02:54:49.373Z,101205.06
2023-02-18T02:57:48.501Z,101216.47
2023-02-18T03:00:32.600Z,101210.97
2023-02-18T03:03:25.740Z,101208.25
2023-02-18T03:06:14.309Z,101209.13
2023-02-18T03:08:55.071Z,101210.91
2023-02-18T03:11:25.321Z,101203.06
2023-02-18T03:14:03.783Z,101203.41
2023-02-18T03:16:45.399Z,101201.22
2023-02-18T03:19:21.682Z,101197.28
2023-02-18T03:21:58.787Z,101191.53
2023-02-18T03:24:35.672Z,101173.25
2023-02-18T03:27:12.708Z,101183.28
2023-02-18T03:29:46.025Z,101181.13
2023-02-18T03:32:21.845Z,101162.69
2023-02-18T03:34:54.401Z,101176.97
2023-02-18T03:37:25.260Z,101173.63
2023-02-18T03:40:02.775Z,101156.75
2023-02-18T03:42:35.233Z,101158.94
2023-02-18T03:45:05.096Z,101114.44
2023-02-18T03:47:35.989Z,101154.25
2023-02-18T03:50:08.801Z,101151.75
2023-02-18T03:52:39.412Z,101156.22
2023-02-18T03:55:13.618Z,101147.41
2023-02-18T03:57:43.584Z,101147.72
2023-02-18T04:00:15.043Z,101137.31
2023-02-18T04:02:45.644Z,101149.31
2023-02-18T04:05:16.161Z,101143.75
2023-02-18T04:07:46.023Z,101152.13
2023-02-18T04:10:19.350Z,101137.66
2023-02-18T04:12:49.333Z,101140.72
2023-02-18T04:15:19.867Z,101144.69
2023-02-18T04:17:49.817Z,101129.63
2023-02-18T04:20:20.606Z,101129.84
2023-02-18T04:22:50.474Z,101129.31
2023-02-18T04:25:23.204Z,101138.06
2023-02-18T04:27:54.318Z,101135.53
2023-02-18T04:30:24.807Z,101134.63
2023-02-18T04:32:54.785Z,101136.44
2023-02-18T04:35:26.817Z,101128.56
2023-02-18T04:37:56.858Z,101125.56
2023-02-18T04:40:31.011Z,101121.66
2023-02-18T04:43:01.472Z,101124.22
2023-02-18T04:45:32.116Z,101084.44
2023-02-18T04:48:02.137Z,101116.75
2023-02-18T04:50:32.156Z,101111.56
2023-02-18T04:53:02.085Z,101095.69
2023-02-18T04:55:34.630Z,101094.78
2023-02-18T04:58:04.590Z,101093.91
2023-02-18T05:00:34.785Z,101077.81
2023-02-18T05:03:04.681Z,101087.47
2023-02-18T05:05:34.530Z,101091.25
2023-02-18T05:08:04.496Z,101085.94
2023-02-18T05:10:37.707Z,101091.16
2023-02-18T05:13:07.668Z,101089.13
2023-02-18T05:15:37.919Z,101082.69
2023-02-18T05:18:08.243Z,101058.28
2023-02-18T05:20:38.740Z,101074.47
2023-02-18T05:23:08.797Z,101068.19
2023-02-18T05:25:41.275Z,101059.81
2023-02-18T05:28:11.968Z,101058.84
2023-02-18T05:30:42.072Z,101062.41
2023-02-18T05:33:11.979Z,101047.38
2023-02-18T05:35:41.903Z,101046.06
2023-02-18T05:38:11.889Z,101011.97
2023-02-18T05:40:44.735Z,101031.16
2023-02-18T05:43:15.080Z,100994.50
2023-02-18T05:45:45.152Z,101011.38
2023-02-18T05:48:15.243Z,101014.19
2023-02-18T05:50:45.443Z,101010.81
2023-02-18T05:53:17.574Z,101010.06
2023-02-18T05:55:50.556Z,101004.13
2023-02-18T05:58:20.463Z,100995.69
2023-02-18T06:00:52.606Z,100996.91
2023-02-18T06:03:22.575Z,100989.69
2023-02-18T06:05:52.749Z,100979.88
2023-02-18T06:08:22.855Z,100980.41
2023-02-18T06:10:55.363Z,100975.94
2023-02-18T06:13:25.449Z,100970.94
2023-02-18T06:15:55.672Z,100966.81
2023-02-18T06:18:25.915Z,100954.13
2023-02-18T06:20:55.780Z,100953.53
2023-02-18T06:23:25.556Z,100948.84
2023-02-18T06:26:00.290Z,100936.31
2023-02-18T06:28:30.279Z,100924.44
2023-02-18T06:31:00.658Z,100908.22
2023-02-18T06:33:30.828Z,100911.41
2023-02-18T06:36:03.207Z,100909.34
2023-02-18T06:38:33.500Z,100887.34
2023-02-18T06:41:06.677Z,100898.34
2023-02-18T06:43:36.778Z,100900.16
2023-02-18T06:46:07.324Z,100891.88
2023-02-18T06:48:38.274Z,100893.06
2023-02-18T06:51:09.155Z,100891.06
2023-02-18T06:53:38.965Z,100878.66
2023-02-18T06:56:11.634Z,100875.09
2023-02-18T06:58:42.616Z,100872.03
2023-02-18T07:01:12.724Z,100872.34
2023-02-18T07:03:42.754Z,100855.97
2023-02-18T07:06:12.727Z,100852.41
2023-02-18T07:08:43.159Z,100857.69
2023-02-18T07:11:16.038Z,100852.81
2023-02-18T07:13:45.831Z,100844.72
2023-02-18T07:16:15.884Z,100828.19
2023-02-18T07:18:49.140Z,100834.41
2023-02-18T07:21:19.509Z,100828.84
2023-02-18T07:23:49.401Z,100829.56
2023-02-18T07:26:21.928Z,100818.78
2023-02-18T07:28:51.870Z,100812.16
2023-02-18T07:31:22.006Z,100801.63
2023-02-18T07:33:51.887Z,100793.22
2023-02-18T07:36:21.823Z,100789.84
2023-02-18T07:38:51.665Z,100794.53
2023-02-18T07:41:25.955Z,100775.59
2023-02-18T07:43:55.702Z,100772.50
2023-02-18T07:46:25.912Z,100772.97
2023-02-18T07:48:55.901Z,100779.34
2023-02-18T07:51:26.114Z,100766.06
2023-02-18T07:53:56.048Z,100764.34
2023-02-18T07:56:29.805Z,100761.56
2023-02-18T07:58:59.626Z,100751.81
2023-02-18T08:01:29.539Z,100748.03
2023-02-18T08:04:00.789Z,100738.03
2023-02-18T08:06:34.441Z,100742.34
2023-02-18T08:09:04.513Z,100740.41
2023-02-18T08:11:37.805Z,100742.22
2023-02-18T08:14:08.151Z,100729.38
2023-02-18T08:16:38.619Z,100730.44
2023-02-18T08:19:08.728Z,100739.00
2023-02-18T08:21:38.873Z,100723.63
2023-02-18T08:24:10.460Z,100722.22
2023-02-18T08:26:59.179Z,100715.41
2023-02-18T08:29:30.241Z,100718.66
2023-02-18T08:32:00.535Z,100706.38
2023-02-18T08:34:30.414Z,100709.47
2023-02-18T08:37:00.262Z,100693.94
2023-02-18T08:39:30.294Z,100690.97
2023-02-18T08:42:02.942Z,100699.84
2023-02-18T08:44:32.948Z,100692.44
2023-02-18T08:47:02.829Z,100692.44
2023-02-18T08:49:32.913Z,100681.63
2023-02-18T08:52:02.830Z,100680.88
2023-02-18T08:54:33.160Z,100683.25
2023-02-18T08:57:05.722Z,100675.84
2023-02-18T08:59:35.750Z,100670.50
2023-02-18T09:02:05.615Z,100676.88
2023-02-18T09:04:35.990Z,100667.38
2023-02-18T09:07:06.321Z,100667.94
2023-02-18T09:09:36.335Z,100670.00
2023-02-18T09:12:09.524Z,100660.38
2023-02-18T09:14:39.684Z,100637.13
2023-02-18T09:17:09.791Z,100649.97
2023-02-18T09:19:40.005Z,100639.72
2023-02-18T09:22:09.958Z,100649.78
2023-02-18T09:24:40.992Z,100642.16
2023-02-18T09:27:13.927Z,100639.19
2023-02-18T09:29:45.169Z,100652.59
2023-02-18T09:32:25.448Z,100623.59
2023-02-18T09:35:02.850Z,100635.19
2023-02-18T09:37:33.126Z,100628.81
2023-02-18T09:40:03.392Z,100619.69
2023-02-18T09:42:37.798Z,100630.38
2023-02-18T09:45:14.271Z,100651.16
2023-02-18T09:47:46.484Z,100642.97
2023-02-18T09:50:26.411Z,100648.03
2023-02-18T09:52:56.641Z,100649.03
2023-02-18T09:55:30.240Z,100634.06
2023-02-18T09:58:06.154Z,100644.47
2023-02-18T10:00:39.947Z,100637.25
2023-02-18T10:03:16.154Z,100634.34
2023-02-18T10:05:56.725Z,100617.91
2023-02-18T10:08:30.409Z,100602.03
2023-02-18T10:11:00.567Z,100613.41
2023-02-18T10:13:37.187Z,100607.91
2023-02-18T10:16:09.071Z,100613.38
2023-02-18T10:18:45.299Z,100619.28
2023-02-18T10:21:18.516Z,100614.69
2023-02-18T10:23:57.651Z,100614.44
2023-02-18T10:26:27.923Z,100615.09
2023-02-18T10:29:01.509Z,100625.63
2023-02-18T10:31:36.320Z,100629.19
2023-02-18T10:34:16.075Z,100608.00
2023-02-18T10:36:48.514Z,100612.41
2023-02-18T10:39:39.792Z,100629.63
2023-02-18T10:42:23.600Z,100623.56
2023-02-18T10:45:06.384Z,100625.50
2023-02-18T10:47:42.241Z,100612.19
2023-02-18T10:50:15.632Z,100616.72
2023-02-18T10:52:50.449Z,100599.81
2023-02-18T10:55:22.170Z,100611.66
2023-02-18T10:57:54.213Z,100596.66
2023-02-18T11:00:29.081Z,100582.41
2023-02-18T11:03:16.256Z,100602.31
2023-02-18T11:05:47.255Z,100593.38
2023-02-18T11:08:21.740Z,100599.75
2023-02-18T11:10:52.546Z,100596.59
2023-02-18T11:13:29.763Z,100568.13
2023-02-18T11:16:04.759Z,100563.22
2023-02-18T11:18:41.374Z,100568.75
2023-02-18T11:21:26.862Z,100601.22
2023-02-18T11:23:58.535Z,100599.53
2023-02-18T11:26:35.032Z,100610.13
2023-02-18T11:29:09.544Z,100604.09
2023-02-18T11:31:47.036Z,100585.50
2023-02-18T11:34:21.252Z,100594.09
2023-02-18T11:36:51.113Z,100600.47
2023-02-18T11:39:24.574Z,100596.63
2023-02-18T11:41:59.499Z,100591.72
2023-02-18T11:44:32.598Z,100597.66
2023-02-18T11:47:07.965Z,100603.44
2023-02-18T11:49:38.501Z,100605.81
2023-02-18T11:52:19.983Z,100593.63
2023-02-18T11:55:03.427Z,100612.03
2023-02-18T11:57:35.255Z,100591.44
2023-02-18T12:00:18.678Z,100589.69
2023-02-18T12:02:52.480Z,100585.25
2023-02-18T12:05:26.404Z,100590.28
2023-02-18T12:08:02.610Z,100576.66
2023-02-18T12:10:37.738Z,100591.31
2023-02-18T12:13:13.624Z,100577.97
2023-02-18T12:15:55.636Z,100595.88
2023-02-18T12:18:53.840Z,100594.22
2023-02-18T12:21:39.302Z,100594.66
2023-02-18T12:24:22.426Z,100588.91
2023-02-18T12:26:58.907Z,100594.06
2023-02-18T12:29:46.260Z,100604.75
2023-02-18T12:32:26.919Z,100620.03
2023-02-18T12:35:13.397Z,100617.56
2023-02-18T12:38:04.534Z,100608.69
2023-02-18T12:41:08.071Z,100600.13
2023-02-18T12:43:51.551Z,100612.28
2023-02-18T12:46:43.037Z,100607.25
2023-02-18T12:49:26.448Z,100595.88
2023-02-18T12:52:21.460Z,100614.19
2023-02-18T12:55:08.490Z,100573.09
2023-02-18T12:57:46.054Z,100622.59
2023-02-18T13:00:51.641Z,100616.81
2023-02-18T13:03:41.366Z,100621.09
2023-02-18T13:06:24.563Z,100616.22
2023-02-18T13:09:08.237Z,100637.41
2023-02-18T13:11:49.412Z,100613.59
2023-02-18T13:14:23.539Z,100620.84
2023-02-18T13:16:56.511Z,100630.31
2023-02-18T13:19:29.596Z,100618.78
2023-02-18T13:22:04.468Z,100627.78
2023-02-18T13:24:39.180Z,100614.47
2023-02-18T13:27:18.008Z,100610.03
2023-02-18T13:29:54.014Z,100640.06
2023-02-18T13:32:29.671Z,100634.00
2023-02-18T13:35:07.762Z,100649.09
2023-02-18T13:37:47.073Z,100648.50
2023-02-18T13:40:24.279Z,100659.19
2023-02-18T13:42:54.786Z,100668.03
2023-02-18T13:45:32.841Z,100663.94
2023-02-18T13:48:03.596Z,100660.66
2023-02-18T13:50:43.228Z,100658.28
2023-02-18T13:53:26.358Z,100662.28
2023-02-18T13:56:13.171Z,100669.53
2023-02-18T13:58:46.166Z,100668.91
2023-02-18T14:01:24.169Z,100677.34
2023-02-18T14:04:00.369Z,100676.19
2023-02-18T14:06:33.612Z,100672.34
2023-02-18T14:09:24.033Z,100677.81
2023-02-18T14:12:17.921Z,100686.41
2023-02-18T14:14:48.498Z,100680.50
2023-02-18T14:17:45.154Z,100689.03
2023-02-18T14:20:51.527Z,100677.53
2023-02-18T14:23:47.492Z,100694.53
2023-02-18T14:26:26.282Z,100700.59
2023-02-18T14:29:03.211Z,100705.63
2023-02-18T14:31:51.493Z,100704.56
2023-02-18T14:34:54.029Z,100710.31
2023-02-18T14:37:45.897Z,100728.97
2023-02-18T14:40:29.510Z,100717.88
2023-02-18T14:43:09.228Z,100709.47
2023-02-18T14:46:03.102Z,100704.13
2023-02-18T14:48:50.487Z,100714.03
2023-02-18T14:51:24.508Z,100715.06
2023-02-18T14:53:55.382Z,100713.19
2023-02-18T14:56:26.277Z,100726.19
2023-02-18T14:59:01.414Z,100717.34
2023-02-18T15:01:36.103Z,100703.25
2023-02-18T15:04:07.181Z,100726.66
2023-02-18T15:06:40.405Z,100727.53
2023-02-18T15:09:17.266Z,100713.91
2023-02-18T15:11:50.525Z,100738.63
2023-02-18T15:14:23.684Z,100745.28
2023-02-18T15:16:56.763Z,100727.66
2023-02-18T15:19:31.624Z,100749.56
2023-02-18T15:22:01.840Z,100742.31
2023-02-18T15:24:35.657Z,100741.75
2023-02-18T15:27:14.040Z,100755.06
2023-02-18T15:29:44.674Z,100759.34
2023-02-18T15:32:23.150Z,100747.81
2023-02-18T15:34:54.624Z,100750.31
2023-02-18T15:37:25.047Z,100756.25
2023-02-18T15:39:55.345Z,100760.53
2023-02-18T15:42:30.285Z,100760.38
2023-02-18T15:45:05.276Z,100770.59
2023-02-18T15:47:37.854Z,100771.03
2023-02-18T15:50:09.451Z,100764.06
2023-02-18T15:52:42.000Z,100765.69
2023-02-18T15:55:18.170Z,100774.72
2023-02-18T15:57:48.365Z,100778.28
2023-02-18T16:00:22.573Z,100781.22
2023-02-18T16:02:58.672Z,100772.50
2023-02-18T16:05:30.529Z,100773.53
2023-02-18T16:08:03.520Z,100777.81
2023-02-18T16:10:47.501Z,100787.88
2023-02-18T16:13:19.781Z,100785.75
2023-02-18T16:15:52.046Z,100777.19
2023-02-18T16:18:33.999Z,100784.91
2023-02-18T16:21:07.316Z,100786.13
2023-02-18T16:23:43.578Z,100781.22
2023-02-18T16:26:23.327Z,100788.03
2023-02-18T16:28:55.565Z,100782.41
2023-02-18T16:31:25.518Z,100788.50
2023-02-18T16:34:00.493Z,100788.50
2023-02-18T16:36:30.564Z,100785.25
2023-02-18T16:39:02.071Z,100799.59
2023-02-18T16:41:32.374Z,100800.47
2023-02-18T16:44:02.250Z,100803.28
2023-02-18T16:46:32.169Z,100796.78
2023-02-18T16:49:04.653Z,100787.47
2023-02-18T16:51:37.408Z,100792.31
2023-02-18T16:54:07.443Z,100799.59
2023-02-18T16:56:39.829Z,100800.91
2023-02-18T16:59:10.428Z,100795.56
2023-02-18T17:01:44.973Z,100784.66
2023-02-18T17:04:18.257Z,100787.16
2023-02-18T17:06:49.069Z,100802.38
2023-02-18T17:09:22.103Z,100798.41
2023-02-18T17:11:54.760Z,100797.66
2023-02-18T17:14:25.604Z,100800.47
2023-02-18T17:16:57.711Z,100803.13
2023-02-18T17:19:30.294Z,100810.69
2023-02-18T17:22:00.414Z,100813.47
2023-02-18T17:24:30.357Z,100815.28
2023-02-18T17:27:00.364Z,100821.22
2023-02-18T17:29:30.367Z,100828.91
2023-02-18T17:32:00.917Z,100831.28
2023-02-18T17:34:36.359Z,100827.53
2023-02-18T17:37:06.277Z,100845.91
2023-02-18T17:39:36.214Z,100837.47
2023-02-18T17:42:06.405Z,100844.09
2023-02-18T17:44:36.359Z,100835.84
2023-02-18T17:47:06.418Z,100826.06
2023-02-18T17:49:38.958Z,100834.22
2023-02-18T17:52:10.314Z,100834.94
2023-02-18T17:54:40.250Z,100844.28
2023-02-18T17:57:11.660Z,100839.06
2023-02-18T17:59:41.759Z,100847.94
2023-02-18T18:02:25.475Z,100832.09
2023-02-18T18:04:58.211Z,100841.09
2023-02-18T18:07:29.091Z,100852.75
2023-02-18T18:10:01.863Z,100857.63
2023-02-18T18:12:33.163Z,100855.59
2023-02-18T18:15:03.339Z,100861.22
2023-02-18T18:17:33.356Z,100863.66
2023-02-18T18:20:06.037Z,100855.81
2023-02-18T18:22:35.951Z,100883.19
2023-02-18T18:25:12.648Z,100886.75
2023-02-18T18:27:42.539Z,100885.84
2023-02-18T18:30:13.418Z,100881.41
2023-02-18T18:32:44.587Z,100898.28
2023-02-18T18:35:30.116Z,100902.41
2023-02-18T18:38:00.475Z,100901.53
2023-02-18T18:40:32.320Z,100908.19
2023-02-18T18:43:04.548Z,100894.72
2023-02-18T18:45:37.379Z,100888.81
2023-02-18T18:48:08.018Z,100894.72
2023-02-18T18:50:42.129Z,100885.09
2023-02-18T18:53:20.176Z,100891.16
2023-02-18T18:55:51.768Z,100899.44
2023-02-18T18:58:24.755Z,100912.00
2023-02-18T19:00:56.964Z,100919.56
2023-02-18T19:03:28.919Z,100928.75
2023-02-18T19:06:01.443Z,100928.75
2023-02-18T19:08:32.411Z,100928.59
2023-02-18T19:11:02.453Z,100922.81
2023-02-18T19:13:36.025Z,100922.53
2023-02-18T19:16:10.230Z,100921.94
2023-02-18T19:18:40.349Z,100877.28
2023-02-18T19:21:15.745Z,100919.25
2023-02-18T19:23:45.736Z,100910.81
2023-02-18T19:26:17.925Z,100922.22
2023-02-18T19:28:49.080Z,100914.94
2023-02-18T19:31:24.176Z,100924.72
2023-02-18T19:33:55.608Z,100932.25
2023-02-18T19:36:28.563Z,100936.59
2023-02-18T19:38:59.486Z,100937.28
2023-02-18T19:41:29.428Z,100941.28
2023-02-18T19:43:59.288Z,100947.63
2023-02-18T19:46:29.284Z,100955.41
2023-02-18T19:48:59.232Z,100953.31
2023-02-18T19:51:31.762Z,100949.75
2023-02-18T19:54:03.419Z,100956.41
2023-02-18T19:56:33.416Z,100945.16
2023-02-18T19:59:03.282Z,100964.13
2023-02-18T20:01:33.291Z,100949.75
2023-02-18T20:04:03.586Z,100952.28
2023-02-18T20:06:36.368Z,100953.19
2023-02-18T20:09:06.517Z,100953.19
2023-02-18T20:11:36.447Z,100948.31
2023-02-18T20:14:06.359Z,100929.34
2023-02-18T20:16:36.601Z,100931.25
2023-02-18T20:19:06.540Z,100922.19
2023-02-18T20:21:38.979Z,100928.53
2023-02-18T20:24:09.832Z,100933.97
2023-02-18T20:26:39.880Z,100935.28
2023-02-18T20:29:10.046Z,100934.88
2023-02-18T20:31:40.178Z,100934.16
2023-02-18T20:34:10.054Z,100938.59
2023-02-18T20:36:44.538Z,100959.75
2023-02-18T20:39:16.385Z,100943.94
2023-02-18T20:41:47.099Z,100947.50
2023-02-18T20:44:18.455Z,100940.69
2023-02-18T20:46:51.001Z,100943.66
2023-02-18T20:49:23.119Z,100946.75
2023-02-18T20:51:55.742Z,100942.63
2023-02-18T20:54:26.569Z,100943.94
2023-02-18T20:56:56.617Z,100941.56
2023-02-18T20:59:26.979Z,100944.09
2023-02-18T21:02:00.061Z,100890.91
2023-02-18T21:04:30.241Z,100942.00
2023-02-18T21:07:02.738Z,100945.06
2023-02-18T21:09:32.653Z,100940.06
2023-02-18T21:12:05.406Z,100905.03
2023-02-18T21:14:35.263Z,100949.53
2023-02-18T21:17:07.881Z,100942.16
2023-02-18T21:19:38.910Z,100932.66
2023-02-18T21:22:11.654Z,100936.50
2023-02-18T21:24:42.008Z,100930.88
2023-02-18T21:27:13.063Z,100940.28
2023-02-18T21:29:42.992Z,100937.03
2023-02-18T21:32:13.250Z,100932.91
2023-02-18T21:34:43.377Z,100930.53
2023-02-18T21:37:16.292Z,100923.31
2023-02-18T21:39:46.509Z,100924.34
2023-02-18T21:42:16.826Z,100921.25
2023-02-18T21:44:46.886Z,100911.34
2023-02-18T21:47:16.682Z,100913.00
2023-02-18T21:49:46.897Z,100910.31
2023-02-18T21:52:19.494Z,100913.16
2023-02-18T21:54:49.671Z,100916.72
2023-02-18T21:57:22.101Z,100917.75
2023-02-18T21:59:52.219Z,100903.72
2023-02-18T22:02:25.231Z,100918.81
2023-02-18T22:04:56.043Z,100911.69
2023-02-18T22:07:30.009Z,100905.19
2023-02-18T22:10:01.221Z,100915.25
2023-02-18T22:12:32.355Z,100910.78
2023-02-18T22:15:05.521Z,100865.28
2023-02-18T22:17:35.579Z,100905.47
2023-02-18T22:20:05.884Z,100902.06
2023-02-18T22:22:38.513Z,100902.78
2023-02-18T22:25:11.258Z,100900.25
2023-02-18T22:27:41.059Z,100902.47
2023-02-18T22:30:12.327Z,100911.06
2023-02-18T22:32:42.479Z,100906.75
2023-02-18T22:35:13.915Z,100894.19
2023-02-18T22:37:50.000Z,100904.25
2023-02-18T22:40:22.462Z,100895.34
2023-02-18T22:42:52.449Z,100891.94
2023-02-18T22:45:22.517Z,100891.09
2023-02-18T22:47:52.457Z,100888.38
2023-02-18T22:50:22.557Z,100885.56
2023-02-18T22:52:55.265Z,100883.63
2023-02-18T22:55:25.611Z,100888.09
2023-02-18T22:57:55.558Z,100887.78
2023-02-18T23:00:28.416Z,100887.94
2023-02-18T23:02:58.356Z,100874.91
2023-02-18T23:05:28.582Z,100875.38
2023-02-18T23:08:01.167Z,100872.88
2023-02-18T23:10:31.080Z,100870.19
2023-02-18T23:13:01.289Z,100859.97
2023-02-18T23:15:31.337Z,100861.88
2023-02-18T23:18:02.153Z,100879.34
2023-02-18T23:20:44.525Z,100869.31
2023-02-18T23:23:17.243Z,100871.97
2023-02-18T23:25:47.710Z,100875.38
2023-02-18T23:28:17.869Z,100873.59
2023-02-18T23:30:47.890Z,100847.13
2023-02-18T23:33:17.774Z,100850.41
2023-02-18T23:35:47.705Z,100851.44
2023-02-18T23:38:20.107Z,100831.91
2023-02-18T23:40:50.861Z,100825.84
2023-02-18T23:43:21.371Z,100826.44
2023-02-18T23:45:51.850Z,100805.16
2023-02-18T23:48:23.269Z,100794.22
2023-02-18T23:50:53.201Z,100801.41
2023-02-18T23:53:28.093Z,100815.91
2023-02-18T23:56:10.579Z,100797.16
2023-02-18T23:58:41.498Z,100807.97
